Time;durP1;ratioP1;P1;durP2;ratioP2;P2;SDS_P1;SDS_P2;PMS_P1;PMS_P2;Temp;Humidity;BMP_temperature;BMP_pressure;BME280_temperature;BME280_humidity;BME280_pressure;Samples;Min_cycle;Max_cycle;Signal;HPM_P1;HPM_P2
2023/06/28 00:12:47;;;;;;;7.45;2.92;;;;;;;;;;5002404;28;20511;-80
2023/06/28 00:18:51;;;;;;;9.25;2.67;;;;;;;;;;4972936;28;20139;-81
2023/06/28 00:21:49;;;;;;;8.18;2.80;;;;;;;;;;4988033;28;20053;-80
2023/06/28 00:24:40;;;;;;;9.25;2.88;;;;;;;;;;4947154;28;20042;-82
2023/06/28 00:30:34;;;;;;;;;;;;;;;;;;;;;
2023/06/28 00:33:22;;;;;;;;;;;;;;;;;;;;;
2023/06/28 00:36:37;;;;;;;8.82;2.35;;;;;;;;;;4971756;28;20046;-82
2023/06/28 00:49:37;;;;;;;;;;;;;;;;;;;;;
2023/06/28 00:52:21;;;;;;;7.60;2.50;;;;;;;;;;5033887;28;20056;-80
2023/06/28 00:55:40;;;;;;;9.30;3.13;;;;;;;;;;5027842;28;20084;-81
2023/06/28 00:58:22;;;;;;;;;;;;;;;;;;;;;
2023/06/28 01:04:37;;;;;;;8.18;2.75;;;;;;;;;;5044324;28;20056;-82
2023/06/28 01:07:33;;;;;;;;;;;;;;;;;;;;;
2023/06/28 01:10:58;;;;;;;5.38;1.90;;;;;;;;;;5021043;28;20626;-83
2023/06/28 01:13:39;;;;;;;6.43;2.42;;;;;;;;;;5011213;28;20049;-81
2023/06/28 01:16:36;;;;;;;;;;;;;;;;;;;;;
2023/06/28 01:26:14;;;;;;;4.80;1.75;;;;;;;;;;5063166;28;19924;-82
2023/06/28 01:33:12;;;;;;;10.10;2.20;;;;;;;;;;4881818;29;20044;-81
2023/06/28 01:42:15;;;;;;;5.80;2.22;;;;;;;;;;4997171;28;20049;-81
2023/06/28 01:45:51;;;;;;;;;;;;;;;;;;;;;
2023/06/28 01:49:20;;;;;;;5.55;2.53;;;;;;;;;;5049252;28;20522;-83
2023/06/28 01:53:07;;;;;;;7.95;2.53;;;15.90;99.90;;;;;;5008235;28;20473;-82
2023/06/28 01:56:38;;;;;;;6.10;2.60;;;;;;;;;;4949076;28;20050;-82
2023/06/28 02:00:08;;;;;;;;;;;;;;;;;;;;;
2023/06/28 02:08:24;;;;;;;;;;;;;;;;;;;;;
2023/06/28 02:15:32;;;;;;;6.45;2.67;;;;;;;;;;4915728;29;20795;-81
2023/06/28 02:18:37;;;;;;;5.97;2.90;;;;;;;;;;4929720;29;20055;-82
2023/06/28 02:32:57;;;;;;;;;;;;;;;;;;;;;
2023/06/28 02:37:09;;;;;;;8.32;2.40;;;15.30;99.90;;;;;;4942203;28;20470;-82
2023/06/28 02:39:58;;;;;;;;;;;;;;;;;;;;;
2023/06/28 02:57:37;;;;;;;;;;;;;;;;;;;;;
2023/06/28 03:01:04;;;;;;;;;;;;;;;;;;;;;
2023/06/28 03:04:29;;;;;;;7.60;2.75;;;;;;;;;;4953983;28;20066;-81
2023/06/28 03:14:24;;;;;;;;;;;;;;;;;;;;;
2023/06/28 03:16:56;;;;;;;6.30;2.47;;;;;;;;;;4864986;29;20056;-82
2023/06/28 03:23:30;;;;;;;7.38;2.35;;;;;;;;;;4803378;22;20047;-57
2023/06/28 03:25:56;;;;;;;7.97;2.55;;;;;;;;;;5068490;28;20064;-57
2023/06/28 03:28:22;;;;;;;6.57;2.13;;;;;;;;;;5062511;28;20063;-57
2023/06/28 03:30:48;;;;;;;6.50;2.17;;;;;;;;;;5055374;28;20040;-59
2023/06/28 03:33:14;;;;;;;6.82;2.40;;;;;;;;;;5063757;28;20456;-58
2023/06/28 03:35:40;;;;;;;8.05;2.65;;;15.40;99.90;;;;;;5054662;28;20044;-58
2023/06/28 03:38:06;;;;;;;9.77;3.20;;;;;;;;;;5059043;28;20079;-57
2023/06/28 03:40:31;;;;;;;8.85;2.50;;;15.60;99.90;;;;;;5056173;28;20376;-59
2023/06/28 03:42:57;;;;;;;6.30;2.33;;;15.50;99.90;;;;;;5064756;28;20039;-57
2023/06/28 03:45:22;;;;;;;6.72;2.55;;;15.60;99.90;;;;;;5048409;28;20121;-57
2023/06/28 03:47:48;;;;;;;6.57;2.42;;;15.60;99.90;;;;;;5042946;28;20185;-58
2023/06/28 03:50:15;;;;;;;6.45;2.45;;;;;;;;;;5059358;28;20417;-58
2023/06/28 03:52:40;;;;;;;6.18;2.40;;;15.50;99.90;;;;;;5065720;28;20379;-57
2023/06/28 03:55:07;;;;;;;5.97;2.75;;;;;;;;;;5058777;28;20041;-57
2023/06/28 03:57:33;;;;;;;6.65;2.60;;;;;;;;;;5041793;28;20051;-58
2023/06/28 03:59:59;;;;;;;7.57;2.67;;;;;;;;;;5044107;28;20087;-56
2023/06/28 04:02:26;;;;;;;7.07;2.92;;;;;;;;;;5040727;28;20160;-57
2023/06/28 04:04:53;;;;;;;5.55;2.55;;;;;;;;;;5057748;28;20388;-57
2023/06/28 04:07:23;;;;;;;15.98;3.30;;;15.60;1.00;;;;;;5061916;28;20040;-54
2023/06/28 04:09:49;;;;;;;8.68;3.05;;;;;;;;;;5047517;28;20044;-57
2023/06/28 04:12:15;;;;;;;8.27;3.25;;;;;;;;;;5066465;28;20305;-56
2023/06/28 04:14:41;;;;;;;7.72;3.28;;;;;;;;;;5068160;28;20083;-57
2023/06/28 04:17:07;;;;;;;7.43;3.17;;;;;;;;;;5066908;28;20032;-56
2023/06/28 04:19:33;;;;;;;8.75;3.28;;;15.60;1.00;;;;;;5060974;28;20120;-55
2023/06/28 04:21:59;;;;;;;9.00;3.45;;;;;;;;;;5041721;28;20108;-55
2023/06/28 04:24:25;;;;;;;8.65;3.08;;;15.80;1.00;;;;;;5041415;28;20041;-56
2023/06/28 04:26:51;;;;;;;8.05;3.38;;;15.70;1.00;;;;;;5041490;28;20056;-57
2023/06/28 04:29:16;;;;;;;10.05;4.10;;;15.80;1.00;;;;;;5060771;28;20116;-57
2023/06/28 04:31:44;;;;;;;7.30;3.20;;;15.40;1.00;;;;;;5064151;28;20029;-58
2023/06/28 04:34:10;;;;;;;8.27;3.25;;;;;;;;;;5062529;28;20137;-58
2023/06/28 04:36:35;;;;;;;8.40;3.60;;;15.50;1.00;;;;;;5057620;28;20041;-58
2023/06/28 04:39:03;;;;;;;7.55;3.40;;;15.50;1.00;;;;;;5057712;28;20036;-58
2023/06/28 04:41:29;;;;;;;7.90;3.70;;;;;;;;;;5063979;28;20170;-60
2023/06/28 04:43:56;;;;;;;10.93;3.75;;;;;;;;;;5050062;28;20067;-61
2023/06/28 04:46:28;;;;;;;11.38;4.05;;;;;;;;;;5065874;28;20062;-63
2023/06/28 04:48:55;;;;;;;11.43;4.40;;;15.60;1.00;;;;;;5066689;28;20449;-67
2023/06/28 04:51:21;;;;;;;9.93;4.57;;;15.60;1.00;;;;;;5038216;28;20036;-70
2023/06/28 04:53:48;;;;;;;8.07;3.72;;;15.60;1.00;;;;;;5053557;28;20536;-67
2023/06/28 04:56:14;;;;;;;10.98;4.47;;;15.20;1.00;;;;;;5037346;28;20048;-66
2023/06/28 04:58:41;;;;;;;10.48;5.00;;;15.50;1.00;;;;;;5059836;28;20121;-64
2023/06/28 05:01:08;;;;;;;12.02;4.55;;;15.50;1.00;;;;;;5061320;28;20028;-64
2023/06/28 05:03:35;;;;;;;12.50;4.85;;;15.50;1.00;;;;;;5062006;28;20048;-64
2023/06/28 05:06:07;;;;;;;10.27;4.55;;;;;;;;;;5057513;28;20146;-64
2023/06/28 05:08:34;;;;;;;11.00;4.75;;;15.50;1.00;;;;;;5061762;28;20067;-64
2023/06/28 05:11:00;;;;;;;9.73;4.70;;;15.50;1.00;;;;;;5059503;28;20039;-64
2023/06/28 05:13:26;;;;;;;10.25;5.38;;;;;;;;;;5060851;28;20116;-65
2023/06/28 05:15:52;;;;;;;14.43;5.75;;;15.60;3.80;;;;;;5031411;28;20128;-66
2023/06/28 05:18:18;;;;;;;11.50;5.40;;;15.60;9.70;;;;;;5063384;28;20086;-66
2023/06/28 05:20:45;;;;;;;13.25;6.80;;;;;;;;;;5041841;28;20505;-67
2023/06/28 05:23:20;;;;;;;15.27;6.95;;;;;;;;;;5061372;28;20047;-66
2023/06/28 05:25:46;;;;;;;13.35;6.35;;;15.70;57.50;;;;;;5042328;28;20394;-65
2023/06/28 05:28:14;;;;;;;12.93;6.32;;;;;;;;;;5050722;28;20044;-64
2023/06/28 05:30:41;;;;;;;14.48;6.70;;;;;;;;;;5063359;28;20040;-64
2023/06/28 05:33:06;;;;;;;13.88;6.18;;;16.20;73.60;;;;;;5053793;28;20044;-64
2023/06/28 05:35:33;;;;;;;11.70;5.40;;;;;;;;;;5057619;28;20480;-62
2023/06/28 05:37:59;;;;;;;14.52;6.50;;;15.70;94.70;;;;;;5056365;28;20033;-63
2023/06/28 05:40:29;;;;;;;17.30;7.70;;;;;;;;;;5070301;28;20059;-63
2023/06/28 05:42:57;;;;;;;14.93;6.45;;;15.80;98.10;;;;;;5060096;28;20033;-63
2023/06/28 05:45:23;;;;;;;13.80;6.13;;;16.40;99.90;;;;;;5059305;28;20052;-62
2023/06/28 05:47:50;;;;;;;13.02;6.25;;;15.90;99.90;;;;;;5063674;28;20033;-62
2023/06/28 05:50:16;;;;;;;12.30;6.28;;;15.60;99.90;;;;;;5063246;28;20037;-63
2023/06/28 05:52:43;;;;;;;17.13;7.13;;;;;;;;;;5066928;28;20040;-63
2023/06/28 05:55:09;;;;;;;11.32;6.47;;;15.80;99.90;;;;;;5070778;28;20032;-66
2023/06/28 05:57:36;;;;;;;10.93;6.60;;;15.50;99.90;;;;;;5067037;28;20082;-67
2023/06/28 06:00:03;;;;;;;11.55;6.55;;;;;;;;;;5044256;28;20516;-67
2023/06/28 06:02:28;;;;;;;9.77;5.45;;;15.90;99.90;;;;;;5073434;22;20109;-62
2023/06/28 06:04:54;;;;;;;17.20;7.03;;;15.90;99.90;;;;;;5050195;28;20127;-61
2023/06/28 06:07:20;;;;;;;11.20;6.88;;;16.30;99.90;;;;;;5074450;28;20036;-61
2023/06/28 06:09:45;;;;;;;10.95;5.53;;;15.10;99.90;;;;;;5085516;28;20034;-62
2023/06/28 06:12:11;;;;;;;9.07;4.63;;;16.20;99.90;;;;;;5063825;28;20481;-62
2023/06/28 06:14:37;;;;;;;11.48;5.30;;;15.70;99.90;;;;;;5069369;28;20036;-62
2023/06/28 06:17:03;;;;;;;11.70;6.75;;;15.80;99.90;;;;;;5054221;28;20535;-62
2023/06/28 06:19:28;;;;;;;10.15;6.20;;;15.30;99.90;;;;;;5069714;28;20385;-62
2023/06/28 06:21:54;;;;;;;11.63;5.38;;;15.80;99.90;;;;;;5054650;28;20126;-62
2023/06/28 06:24:19;;;;;;;11.75;5.90;;;15.50;99.90;;;;;;5064694;28;20039;-62
2023/06/28 06:26:45;;;;;;;14.05;6.38;;;16.30;99.90;;;;;;5069192;28;20434;-62
2023/06/28 06:29:11;;;;;;;13.93;6.20;;;16.00;99.90;;;;;;5061840;28;20024;-62
2023/06/28 06:31:37;;;;;;;11.88;6.13;;;16.20;99.90;;;;;;5066000;28;20043;-62
2023/06/28 06:34:03;;;;;;;10.25;6.40;;;16.10;99.90;;;;;;5066393;28;20382;-62
2023/06/28 06:36:29;;;;;;;11.63;6.13;;;16.00;99.90;;;;;;5068573;28;20071;-62
2023/06/28 06:38:56;;;;;;;13.13;6.07;;;15.80;99.90;;;;;;5060359;28;20439;-62
2023/06/28 06:41:22;;;;;;;13.35;5.25;;;16.30;99.90;;;;;;5065090;28;20041;-62
2023/06/28 06:43:49;;;;;;;9.40;5.82;;;15.20;99.90;;;;;;5066721;28;20036;-62
2023/06/28 06:46:15;;;;;;;15.82;6.45;;;15.40;99.90;;;;;;5062289;28;20085;-62
2023/06/28 06:48:41;;;;;;;13.13;6.20;;;15.10;99.90;;;;;;5063140;28;20035;-62
2023/06/28 06:51:07;;;;;;;11.45;6.47;;;15.40;99.90;;;;;;5063493;28;20036;-63
2023/06/28 06:53:33;;;;;;;13.57;6.97;;;16.10;99.90;;;;;;5061467;28;20385;-62
2023/06/28 06:55:59;;;;;;;11.07;5.45;;;16.70;99.90;;;;;;5046952;28;20425;-62
2023/06/28 06:58:25;;;;;;;11.48;6.22;;;;;;;;;;5064821;28;20036;-61
2023/06/28 07:00:52;;;;;;;10.85;5.85;;;16.10;99.90;;;;;;5066895;28;20037;-61
2023/06/28 07:03:20;;;;;;;13.73;5.75;;;15.90;99.90;;;;;;5061395;28;20079;-62
2023/06/28 07:05:46;;;;;;;12.20;6.50;;;15.40;99.90;;;;;;5066568;28;20071;-60
2023/06/28 07:08:12;;;;;;;14.25;6.28;;;15.50;99.90;;;;;;5064733;28;20493;-61
2023/06/28 07:10:37;;;;;;;10.70;5.90;;;15.40;99.90;;;;;;5056533;28;20513;-60
2023/06/28 07:13:03;;;;;;;10.82;6.13;;;16.10;99.90;;;;;;5051316;28;20482;-61
2023/06/28 07:15:29;;;;;;;11.55;6.00;;;15.70;99.90;;;;;;5068817;28;20468;-60
2023/06/28 07:17:55;;;;;;;11.98;6.25;;;15.80;99.90;;;;;;5064981;28;20546;-61
2023/06/28 07:20:21;;;;;;;12.18;5.40;;;16.50;99.90;;;;;;5065332;28;20512;-61
2023/06/28 07:22:47;;;;;;;9.98;5.30;;;15.70;99.90;;;;;;5067105;28;20036;-61
2023/06/28 07:25:13;;;;;;;11.40;5.97;;;16.50;99.90;;;;;;5048787;28;20040;-61
2023/06/28 07:27:39;;;;;;;11.15;6.07;;;16.40;99.90;;;;;;5066657;28;20453;-61
2023/06/28 07:30:07;;;;;;;13.05;6.60;;;15.70;99.90;;;;;;5066699;28;20029;-61
2023/06/28 07:32:34;;;;;;;10.88;6.78;;;15.50;99.90;;;;;;5046958;28;20040;-61
2023/06/28 07:35:00;;;;;;;10.95;6.18;;;15.50;99.90;;;;;;5064203;28;20037;-61
2023/06/28 07:37:26;;;;;;;11.45;6.45;;;16.40;99.90;;;;;;5062083;28;20535;-61
2023/06/28 07:39:52;;;;;;;11.02;5.70;;;16.70;99.90;;;;;;5054707;28;20041;-60
2023/06/28 07:42:19;;;;;;;14.23;6.28;;;16.00;99.90;;;;;;5068474;28;20041;-61
2023/06/28 07:44:45;;;;;;;9.75;5.63;;;16.30;99.90;;;;;;5044270;28;20408;-61
2023/06/28 07:47:11;;;;;;;12.10;6.18;;;16.30;99.90;;;;;;5062278;28;20035;-61
2023/06/28 07:49:38;;;;;;;11.82;6.90;;;16.20;99.90;;;;;;5064044;28;20065;-61
2023/06/28 07:52:04;;;;;;;12.18;6.78;;;16.00;99.90;;;;;;5067184;28;20036;-61
2023/06/28 07:54:30;;;;;;;11.57;6.25;;;16.30;99.90;;;;;;5060156;28;20418;-61
2023/06/28 07:56:56;;;;;;;13.88;6.43;;;15.60;99.90;;;;;;5062300;28;20041;-61
2023/06/28 07:59:22;;;;;;;12.77;6.78;;;16.70;99.90;;;;;;5067291;28;20028;-61
2023/06/28 08:01:48;;;;;;;12.00;7.10;;;15.90;99.90;;;;;;5055424;28;20102;-61
2023/06/28 08:04:17;;;;;;;12.68;6.28;;;16.40;99.90;;;;;;5060721;28;20040;-61
2023/06/28 08:06:46;;;;;;;11.20;7.05;;;15.90;99.90;;;;;;5049907;28;20427;-61
2023/06/28 08:09:13;;;;;;;17.63;7.05;;;15.70;99.90;;;;;;5058455;28;20441;-61
2023/06/28 08:11:39;;;;;;;11.07;6.57;;;15.70;99.90;;;;;;5064125;28;20098;-61
2023/06/28 08:14:05;;;;;;;9.15;6.15;;;15.70;99.90;;;;;;5064540;28;20456;-61
2023/06/28 08:16:31;;;;;;;13.48;7.35;;;15.90;99.90;;;;;;5061174;28;20094;-61
2023/06/28 08:18:57;;;;;;;12.88;6.78;;;16.70;99.90;;;;;;5066483;28;20432;-61
2023/06/28 08:21:23;;;;;;;13.27;7.47;;;16.40;99.90;;;;;;5045754;28;20093;-59
2023/06/28 08:23:48;;;;;;;15.15;8.05;;;16.30;99.90;;;;;;5061748;28;20044;-61
2023/06/28 08:26:15;;;;;;;13.05;7.93;;;16.60;99.90;;;;;;5060647;28;20393;-61
2023/06/28 08:28:41;;;;;;;15.07;8.75;;;16.10;99.90;;;;;;5060220;28;20489;-60
2023/06/28 08:31:07;;;;;;;13.18;8.25;;;16.00;99.90;;;;;;5059805;28;20387;-61
2023/06/28 08:33:32;;;;;;;15.70;9.32;;;15.90;99.90;;;;;;5068238;28;20060;-61
2023/06/28 08:35:58;;;;;;;14.88;9.10;;;16.30;99.90;;;;;;5071523;28;20071;-61
2023/06/28 08:38:24;;;;;;;19.25;9.30;;;16.60;99.90;;;;;;5066507;28;20486;-61
2023/06/28 08:40:50;;;;;;;17.20;8.68;;;16.30;99.90;;;;;;5071876;28;20055;-60
2023/06/28 08:43:17;;;;;;;15.77;10.13;;;15.80;99.90;;;;;;5064858;28;20032;-61
2023/06/28 08:45:46;;;;;;;15.43;9.50;;;15.90;99.90;;;;;;5070638;28;20045;-61
2023/06/28 08:48:13;;;;;;;16.40;9.40;;;15.80;99.90;;;;;;5068854;28;20033;-62
2023/06/28 08:50:40;;;;;;;14.77;9.70;;;17.00;99.90;;;;;;5069874;28;20103;-62
2023/06/28 08:53:10;;;;;;;15.50;10.25;;;15.90;99.90;;;;;;5056087;28;20047;-62
2023/06/28 08:55:41;;;;;;;15.60;10.40;;;17.00;99.90;;;;;;5071153;28;20044;-62
2023/06/28 08:58:08;;;;;;;15.57;10.80;;;15.90;99.90;;;;;;5060553;28;20461;-62
2023/06/28 09:00:34;;;;;;;15.65;9.60;;;16.70;99.90;;;;;;5036156;28;20519;-62
2023/06/28 09:03:01;;;;;;;17.88;10.68;;;16.80;99.90;;;;;;5070419;28;20188;-62
2023/06/28 09:05:27;;;;;;;15.70;9.57;;;16.20;99.90;;;;;;5068236;28;20036;-62
2023/06/28 09:07:56;;;;;;;19.08;12.05;;;16.70;99.90;;;;;;5057837;28;20045;-63
2023/06/28 09:10:23;;;;;;;16.23;10.80;;;16.60;99.90;;;;;;5061654;28;20029;-61
2023/06/28 09:12:49;;;;;;;16.38;10.52;;;17.10;99.90;;;;;;5060320;28;20045;-61
2023/06/28 09:15:20;;;;;;;16.10;9.63;;;16.60;99.90;;;;;;5070896;28;20412;-61
2023/06/28 09:17:46;;;;;;;18.10;10.27;;;16.80;99.90;;;;;;5064207;28;20049;-63
2023/06/28 09:20:18;;;;;;;15.55;9.70;;;17.40;99.90;;;;;;5069735;28;20044;-61
2023/06/28 09:22:55;;;;;;;17.08;10.45;;;16.80;99.90;;;;;;5066035;28;20076;-61
2023/06/28 09:25:21;;;;;;;17.85;11.30;;;17.20;99.90;;;;;;5057115;28;20052;-61
2023/06/28 09:27:47;;;;;;;18.95;12.18;;;16.60;99.90;;;;;;5064911;28;20028;-62
2023/06/28 09:30:19;;;;;;;13.25;9.63;;;16.20;99.90;;;;;;5071014;28;20089;-62
2023/06/28 09:32:51;;;;;;;14.00;10.18;;;17.30;99.90;;;;;;5054573;28;20047;-62
2023/06/28 09:35:17;;;;;;;12.07;8.65;;;17.00;99.90;;;;;;5070744;28;20036;-62
2023/06/28 09:37:47;;;;;;;15.13;10.70;;;16.60;99.90;;;;;;5060637;28;20528;-62
2023/06/28 09:40:16;;;;;;;14.52;9.82;;;17.10;99.90;;;;;;5071049;28;20123;-62
2023/06/28 09:42:44;;;;;;;14.50;10.60;;;17.10;99.90;;;;;;5068317;28;20032;-61
2023/06/28 09:45:22;;;;;;;15.60;10.45;;;17.70;99.90;;;;;;5070706;28;20048;-62
2023/06/28 09:48:00;;;;;;;13.52;9.88;;;17.40;99.90;;;;;;5052560;28;20036;-62
2023/06/28 09:50:36;;;;;;;17.45;11.18;;;17.20;99.90;;;;;;5071050;28;20051;-61
2023/06/28 09:53:03;;;;;;;15.20;9.75;;;17.20;99.90;;;;;;5066873;28;20041;-62
2023/06/28 09:55:28;;;;;;;13.18;9.20;;;17.30;99.90;;;;;;5059879;28;20124;-62
2023/06/28 09:57:56;;;;;;;15.13;11.68;;;17.10;99.90;;;;;;5057916;28;20116;-62
2023/06/28 10:00:23;;;;;;;14.25;10.90;;;17.00;99.90;;;;;;5059388;28;20043;-62
2023/06/28 10:02:49;;;;;;;14.50;10.85;;;18.20;99.90;;;;;;5064986;28;20443;-62
2023/06/28 10:05:16;;;;;;;13.90;10.73;;;17.30;99.90;;;;;;5066244;28;20093;-62
2023/06/28 10:07:44;;;;;;;16.58;12.68;;;17.40;99.90;;;;;;5061316;28;20041;-62
2023/06/28 10:10:11;;;;;;;16.15;12.32;;;18.20;99.90;;;;;;5043146;28;20048;-62
2023/06/28 10:12:38;;;;;;;16.13;12.15;;;17.60;99.90;;;;;;5062404;28;20033;-62
2023/06/28 10:15:10;;;;;;;16.77;12.30;;;17.40;99.90;;;;;;5065793;28;20038;-61
2023/06/28 10:17:37;;;;;;;14.05;10.75;;;17.70;99.90;;;;;;5050833;28;20067;-62
2023/06/28 10:20:05;;;;;;;16.40;11.95;;;18.60;99.90;;;;;;5049702;28;20061;-61
2023/06/28 10:22:32;;;;;;;17.98;12.93;;;18.30;99.90;;;;;;5025773;28;20135;-61
2023/06/28 10:25:01;;;;;;;17.08;12.13;;;17.60;99.90;;;;;;5063945;28;20044;-61
2023/06/28 10:27:27;;;;;;;15.80;11.63;;;17.60;99.90;;;;;;5055970;28;20040;-61
2023/06/28 10:29:54;;;;;;;16.10;12.30;;;17.90;99.90;;;;;;5054595;28;20064;-61
2023/06/28 10:32:20;;;;;;;19.45;13.93;;;17.90;99.90;;;;;;5061473;28;20093;-63
2023/06/28 10:34:50;;;;;;;16.20;12.13;;;17.40;99.90;;;;;;5059665;28;20127;-61
2023/06/28 10:37:22;;;;;;;16.33;13.25;;;18.30;99.90;;;;;;5063587;28;20059;-61
2023/06/28 10:39:53;;;;;;;15.45;11.57;;;18.40;99.90;;;;;;5058318;28;20036;-61
2023/06/28 10:42:21;;;;;;;18.50;14.30;;;17.70;99.90;;;;;;5058489;28;20056;-61
2023/06/28 10:44:57;;;;;;;18.00;13.20;;;17.80;99.90;;;;;;5056327;28;20037;-61
2023/06/28 10:47:23;;;;;;;18.10;13.32;;;18.60;99.90;;;;;;5037429;28;20490;-60
2023/06/28 10:50:09;;;;;;;16.92;13.27;;;18.20;99.90;;;;;;5061393;28;20506;-60
2023/06/28 10:52:46;;;;;;;18.80;14.57;;;18.20;99.90;;;;;;5052270;28;20079;-61
2023/06/28 10:55:12;;;;;;;21.90;14.43;;;18.70;99.90;;;;;;5060693;28;20116;-61
2023/06/28 10:57:41;;;;;;;18.45;13.00;;;18.50;99.90;;;;;;5057377;28;20221;-61
2023/06/28 11:00:36;;;;;;;20.92;15.65;;;18.20;99.90;;;;;;5048716;28;20041;-61
2023/06/28 11:03:06;;;;;;;18.15;14.25;;;18.70;99.90;;;;;;5058007;28;20513;-60
2023/06/28 11:05:54;;;;;;;19.58;14.93;;;18.50;99.90;;;;;;5057770;28;20055;-61
2023/06/28 11:08:21;;;;;;;20.13;15.93;;;17.70;99.90;;;;;;5060299;28;20036;-61
2023/06/28 11:10:55;;;;;;;19.25;14.00;;;18.10;99.90;;;;;;5036023;28;20045;-61
2023/06/28 11:13:44;;;;;;;17.23;13.20;;;18.80;99.90;;;;;;5048281;28;20064;-60
2023/06/28 11:16:20;;;;;;;21.38;14.13;;;18.10;99.90;;;;;;5054636;28;20040;-61
2023/06/28 11:18:47;;;;;;;20.85;15.25;;;18.50;99.90;;;;;;5059410;28;20053;-60
2023/06/28 11:21:15;;;;;;;19.90;14.48;;;17.80;99.90;;;;;;5048459;28;20073;-61
2023/06/28 11:23:43;;;;;;;21.00;13.70;;;18.60;99.90;;;;;;5046953;28;20128;-60
2023/06/28 11:26:16;;;;;;;19.50;13.98;;;18.10;99.90;;;;;;5060973;28;20048;-61
2023/06/28 11:28:55;;;;;;;23.73;15.88;;;18.50;99.90;;;;;;5062537;28;20126;-60
2023/06/28 11:31:26;;;;;;;22.08;15.65;;;17.50;99.90;;;;;;5051347;28;20044;-61
2023/06/28 11:33:56;;;;;;;21.02;16.27;;;18.50;99.90;;;;;;5050245;28;20037;-61
2023/06/28 11:36:25;;;;;;;19.48;15.10;;;18.60;99.90;;;;;;5053364;28;20531;-61
2023/06/28 11:38:51;;;;;;;27.27;18.35;;;17.80;99.90;;;;;;5057874;28;20111;-60
2023/06/28 11:41:17;;;;;;;23.13;17.27;;;18.40;99.90;;;;;;5058387;28;20452;-61
2023/06/28 11:43:44;;;;;;;25.02;18.30;;;18.50;99.90;;;;;;5055722;28;20116;-61
2023/06/28 11:46:15;;;;;;;27.05;18.67;;;17.90;99.90;;;;;;5066993;28;20119;-60
2023/06/28 11:48:41;;;;;;;25.80;19.98;;;17.50;99.90;;;;;;5056831;28;20524;-61
2023/06/28 11:51:06;;;;;;;24.77;19.17;;;18.40;99.90;;;;;;5065444;28;20064;-59
2023/06/28 11:53:32;;;;;;;27.65;20.30;;;17.60;99.90;;;;;;5047507;28;20508;-60
2023/06/28 11:55:58;;;;;;;24.05;18.02;;;18.50;99.90;;;;;;5067716;28;20756;-60
2023/06/28 11:58:35;;;;;;;28.95;21.02;;;17.70;99.90;;;;;;5061914;28;20059;-60
2023/06/28 12:01:04;;;;;;;28.73;20.77;;;17.80;99.90;;;;;;5053947;28;20131;-60
2023/06/28 12:03:38;;;;;;;26.17;19.67;;;17.80;99.90;;;;;;5070427;28;20046;-62
2023/06/28 12:06:10;;;;;;;29.33;20.58;;;18.20;99.90;;;;;;5055605;28;20502;-61
2023/06/28 12:08:37;;;;;;;27.08;20.67;;;18.60;99.90;;;;;;5064935;28;20154;-61
2023/06/28 12:11:14;;;;;;;27.10;21.05;;;17.80;99.90;;;;;;5060715;28;20029;-62
2023/06/28 12:13:40;;;;;;;30.33;21.65;;;17.70;99.90;;;;;;5064641;28;20401;-63
2023/06/28 12:16:17;;;;;;;30.95;22.80;;;18.40;99.90;;;;;;5039032;28;20037;-62
2023/06/28 12:18:56;;;;;;;34.22;24.15;;;18.70;99.90;;;;;;5064477;28;20363;-63
2023/06/28 12:21:28;;;;;;;33.00;24.13;;;18.20;99.90;;;;;;5063287;28;20033;-62
2023/06/28 12:24:10;;;;;;;33.67;23.95;;;17.80;99.90;;;;;;5056797;28;20045;-63
2023/06/28 12:26:36;;;;;;;35.88;24.27;;;18.40;99.90;;;;;;5057704;28;20693;-62
2023/06/28 12:29:02;;;;;;;31.45;24.90;;;18.70;99.90;;;;;;5062662;28;20037;-63
2023/06/28 12:31:44;;;;;;;32.35;25.15;;;17.80;99.90;;;;;;5060917;28;20037;-61
2023/06/28 12:34:10;;;;;;;33.20;26.23;;;17.80;99.90;;;;;;5064135;28;20033;-63
2023/06/28 12:36:39;;;;;;;28.23;22.98;;;18.70;99.90;;;;;;5063080;28;20413;-62
2023/06/28 12:39:05;;;;;;;34.55;26.20;;;18.80;99.90;;;;;;5057542;28;20051;-62
2023/06/28 12:41:31;;;;;;;33.08;25.42;;;18.90;99.90;;;;;;5061104;28;20079;-62
2023/06/28 12:43:58;;;;;;;37.85;28.20;;;18.80;99.90;;;;;;5057668;28;20036;-62
2023/06/28 12:46:25;;;;;;;34.08;26.33;;;19.00;99.90;;;;;;5067374;28;20083;-61
2023/06/28 12:48:55;;;;;;;33.78;23.77;;;18.20;99.90;;;;;;5063199;28;20394;-62
2023/06/28 12:51:22;;;;;;;36.10;26.88;;;18.00;99.90;;;;;;5056987;28;20051;-62
2023/06/28 12:53:49;;;;;;;30.83;23.85;;;18.90;99.90;;;;;;5066714;28;20401;-65
2023/06/28 12:56:14;;;;;;;35.92;25.77;;;18.20;99.90;;;;;;5065651;28;20036;-62
2023/06/28 12:58:40;;;;;;;39.17;29.80;;;19.10;99.90;;;;;;5071652;28;20567;-62
2023/06/28 13:01:06;;;;;;;34.25;26.13;;;19.10;99.90;;;;;;5044437;28;20478;-62
2023/06/28 13:03:31;;;;;;;40.83;28.60;;;19.00;99.90;;;;;;5064114;28;20094;-62
2023/06/28 13:05:59;;;;;;;40.17;29.30;;;18.80;99.90;;;;;;5046739;28;20358;-63
2023/06/28 13:08:29;;;;;;;43.35;30.13;;;17.90;99.90;;;;;;5063635;28;20351;-62
2023/06/28 13:10:56;;;;;;;38.13;30.23;;;19.00;99.90;;;;;;5060803;28;20043;-62
2023/06/28 13:13:22;;;;;;;41.80;31.20;;;18.80;99.90;;;;;;5047631;28;20040;-62
2023/06/28 13:15:48;;;;;;;47.08;31.88;;;18.80;99.90;;;;;;5064698;28;20679;-62
2023/06/28 13:18:13;;;;;;;46.60;29.75;;;18.50;99.90;;;;;;5060547;28;20029;-63
2023/06/28 13:20:39;;;;;;;38.40;28.48;;;18.90;99.90;;;;;;5068525;28;20508;-61
2023/06/28 13:23:05;;;;;;;37.17;29.40;;;18.80;99.90;;;;;;5068655;28;20037;-63
2023/06/28 13:25:30;;;;;;;38.72;29.33;;;18.60;99.90;;;;;;5067092;28;20091;-62
2023/06/28 13:27:56;;;;;;;44.38;31.63;;;19.00;99.90;;;;;;5065682;28;20461;-62
2023/06/28 13:30:22;;;;;;;36.42;28.35;;;19.10;99.90;;;;;;5067511;28;20116;-62
2023/06/28 13:32:49;;;;;;;41.75;30.38;;;19.00;99.90;;;;;;5059335;28;20521;-62
2023/06/28 13:35:16;;;;;;;35.13;25.48;;;18.90;99.90;;;;;;5064595;28;20048;-62
2023/06/28 13:37:43;;;;;;;39.15;28.90;;;19.10;99.90;;;;;;5061455;28;20486;-62
2023/06/28 13:40:09;;;;;;;38.45;27.38;;;18.90;99.90;;;;;;5055705;28;20071;-62
2023/06/28 13:42:35;;;;;;;38.53;28.20;;;18.30;99.90;;;;;;5066621;28;20451;-62
2023/06/28 13:45:00;;;;;;;34.92;27.05;;;19.10;99.90;;;;;;5061772;28;20041;-62
2023/06/28 13:47:26;;;;;;;33.33;25.70;;;18.60;99.90;;;;;;5049281;28;20037;-62
2023/06/28 13:49:52;;;;;;;37.25;28.00;;;20.10;99.90;;;;;;5059300;28;20120;-62
2023/06/28 13:52:19;;;;;;;32.53;23.40;;;19.50;99.90;;;;;;5063520;28;20120;-62
2023/06/28 13:54:45;;;;;;;38.50;28.75;;;19.20;99.90;;;;;;5038168;28;20771;-62
2023/06/28 13:57:11;;;;;;;46.70;29.25;;;19.60;99.90;;;;;;5069029;28;20028;-62
2023/06/28 13:59:37;;;;;;;42.78;30.67;;;19.70;99.90;;;;;;5063593;28;20048;-62
2023/06/28 14:02:04;;;;;;;38.22;28.45;;;18.80;99.90;;;;;;5066783;28;20452;-62
2023/06/28 14:04:30;;;;;;;39.08;28.48;;;19.20;99.90;;;;;;5065280;28;20051;-62
2023/06/28 14:06:55;;;;;;;39.90;29.48;;;19.40;99.90;;;;;;5041723;28;20402;-63
2023/06/28 14:09:21;;;;;;;39.55;28.98;;;19.10;99.90;;;;;;5066398;28;20041;-62
2023/06/28 14:11:47;;;;;;;36.00;26.13;;;19.40;99.90;;;;;;5050899;28;20037;-62
2023/06/28 14:14:12;;;;;;;42.25;30.05;;;19.30;99.90;;;;;;5054266;28;20052;-62
2023/06/28 14:16:38;;;;;;;42.42;31.08;;;19.40;99.90;;;;;;5060755;28;20072;-63
2023/06/28 14:19:05;;;;;;;44.10;30.83;;;19.30;99.90;;;;;;5066624;28;20071;-62
2023/06/28 14:21:30;;;;;;;42.13;33.05;;;19.30;99.90;;;;;;5066400;28;20087;-62
2023/06/28 14:23:56;;;;;;;41.15;30.83;;;19.40;99.90;;;;;;5050613;28;20044;-62
2023/06/28 14:26:22;;;;;;;45.28;32.50;;;19.00;99.90;;;;;;5041139;28;20049;-62
2023/06/28 14:28:47;;;;;;;41.60;31.15;;;18.50;99.90;;;;;;5070207;28;20340;-62
2023/06/28 14:31:15;;;;;;;40.90;29.15;;;19.30;99.90;;;;;;5057694;28;20055;-62
2023/06/28 14:33:47;;;;;;;47.38;34.47;;;18.70;99.90;;;;;;5060235;28;20527;-62
2023/06/28 14:36:13;;;;;;;44.30;35.33;;;19.10;99.90;;;;;;5069487;28;20158;-62
2023/06/28 14:38:39;;;;;;;45.67;33.40;;;19.20;99.90;;;;;;5069437;28;20462;-63
2023/06/28 14:41:04;;;;;;;48.47;34.65;;;19.40;99.90;;;;;;5049875;28;20044;-63
2023/06/28 14:43:30;;;;;;;49.53;35.67;;;18.90;99.90;;;;;;5058255;28;20056;-63
2023/06/28 14:45:56;;;;;;;52.65;36.53;;;19.20;99.90;;;;;;5069232;28;20032;-62
2023/06/28 14:48:21;;;;;;;51.83;36.47;;;19.10;99.90;;;;;;5051327;28;20033;-62
2023/06/28 14:50:47;;;;;;;53.70;37.85;;;19.10;99.90;;;;;;5069473;28;20402;-62
2023/06/28 14:53:12;;;;;;;50.90;36.95;;;19.20;99.90;;;;;;5060617;28;20508;-62
2023/06/28 14:55:38;;;;;;;54.05;37.72;;;19.10;99.90;;;;;;5068811;28;20406;-63
2023/06/28 14:58:04;;;;;;;53.58;35.72;;;19.20;99.90;;;;;;5069351;28;20052;-63
2023/06/28 15:00:29;;;;;;;50.88;37.65;;;19.10;99.90;;;;;;5043116;28;20131;-63
2023/06/28 15:02:55;;;;;;;49.88;36.13;;;19.30;99.90;;;;;;5043311;28;20047;-63
2023/06/28 15:05:21;;;;;;;54.88;38.42;;;19.10;99.90;;;;;;5060305;28;20044;-63